Aviation Digital Data Service (ADDS)

Output produced by TAFs form (1355 UTC 23 April 2017)
found at http://aviationweather.gov/adds/tafs/
 
KDMN 231120Z 2312/2412 07012KT P6SM SKC 
     FM231500 09014G24KT P6SM SKC 
     FM232000 17010KT P6SM SKC 
     FM240300 25007KT P6SM SCT250